Time;durP1;ratioP1;P1;durP2;ratioP2;P2;SDS_P1;SDS_P2;PMS_P1;PMS_P2;Temp;Humidity;BMP_temperature;BMP_pressure;BME280_temperature;BME280_humidity;BME280_pressure;Samples;Min_cycle;Max_cycle;Signal;HPM_P1;HPM_P2
2023/12/31 00:01:11;;;;;;;5.97;2.50;;;;;;;5.35;90.30;98226.75;4955076;28;20022;-83
2023/12/31 00:03:37;;;;;;;3.38;2.22;;;;;;;5.31;90.05;98221.09;4988425;28;20030;-82
2023/12/31 00:06:02;;;;;;;6.03;2.58;;;;;;;5.40;89.83;98230.28;4975264;28;20467;-83
2023/12/31 00:08:28;;;;;;;9.73;2.80;;;;;;;5.46;89.92;98229.34;4989572;28;20887;-83
2023/12/31 00:10:53;;;;;;;4.50;2.28;;;;;;;5.51;88.93;98224.19;4989398;28;20041;-82
2023/12/31 00:13:18;;;;;;;3.45;2.22;;;;;;;5.43;88.82;98237.78;4987214;28;20117;-83
2023/12/31 00:15:44;;;;;;;4.25;2.45;;;;;;;5.24;89.38;98209.84;4983845;28;20053;-83
2023/12/31 00:18:09;;;;;;;11.13;3.53;;;;;;;5.28;89.66;98206.50;4963369;28;20165;-83
2023/12/31 00:20:35;;;;;;;5.57;2.70;;;;;;;5.29;90.02;98207.28;4990458;28;20041;-83
2023/12/31 00:23:00;;;;;;;5.18;2.47;;;;;;;5.31;89.64;98195.44;4993274;28;20180;-83
2023/12/31 00:25:25;;;;;;;8.27;3.42;;;;;;;5.36;89.57;98199.22;4987873;28;20034;-83
2023/12/31 00:27:51;;;;;;;5.65;2.65;;;;;;;5.45;89.17;98196.00;4991276;28;20041;-83
2023/12/31 00:30:16;;;;;;;8.50;3.05;;;;;;;5.42;89.62;98193.81;4981227;28;20367;-82
2023/12/31 00:32:41;;;;;;;5.20;3.08;;;;;;;5.24;91.15;98183.38;4985700;28;20034;-81
2023/12/31 00:35:07;;;;;;;9.35;3.35;;;;;;;5.51;89.94;98181.84;4986004;28;20066;-82
2023/12/31 00:37:33;;;;;;;2.35;2.15;;;;;;;5.49;89.51;98172.53;4970671;28;20038;-83
2023/12/31 00:39:58;;;;;;;7.93;2.90;;;;;;;5.43;89.33;98168.16;4989092;28;20052;-82
2023/12/31 00:42:24;;;;;;;6.53;2.63;;;;;;;5.46;89.35;98163.19;4984026;28;20035;-82
2023/12/31 00:44:49;;;;;;;3.60;2.70;;;;;;;5.37;89.13;98151.38;5011947;28;20083;-82
2023/12/31 00:47:14;;;;;;;6.32;2.80;;;;;;;5.39;89.44;98156.44;4989470;28;20045;-82
2023/12/31 00:49:40;;;;;;;9.43;3.22;;;;;;;5.47;90.22;98153.44;4987046;28;20026;-82
2023/12/31 00:52:06;;;;;;;4.70;3.30;;;;;;;5.45;89.60;98142.28;4988687;28;20046;-82
2023/12/31 00:54:31;;;;;;;8.95;4.05;;;;;;;5.38;89.69;98131.00;4969891;28;20630;-82
2023/12/31 00:56:58;;;;;;;5.25;2.80;;;;;;;5.42;89.80;98130.31;4989730;28;20448;-82
2023/12/31 00:59:23;;;;;;;5.60;3.47;;;;;;;5.50;89.39;98116.75;4989408;28;20037;-83
2023/12/31 01:01:50;;;;;;;4.30;3.13;;;;;;;5.39;89.78;98119.41;4992107;28;20035;-82
2023/12/31 01:04:16;;;;;;;5.93;2.70;;;;;;;5.47;89.54;98124.31;4957151;28;20035;-82
2023/12/31 01:06:42;;;;;;;5.93;2.65;;;;;;;5.25;89.64;98095.03;4965977;28;20035;-82
2023/12/31 01:09:07;;;;;;;5.20;2.78;;;;;;;5.36;90.99;98115.38;4989349;28;20030;-82
2023/12/31 01:11:34;;;;;;;3.70;2.67;;;;;;;5.27;90.76;98092.94;4991605;28;20089;-82
2023/12/31 01:13:59;;;;;;;4.55;3.20;;;;;;;5.19;91.50;98109.19;4973071;28;20042;-82
2023/12/31 01:16:25;;;;;;;7.65;3.17;;;;;;;5.27;90.47;98100.88;4976037;28;20147;-82
2023/12/31 01:18:50;;;;;;;5.07;2.60;;;;;;;5.45;90.65;98102.56;4993336;28;20054;-82
2023/12/31 01:21:17;;;;;;;3.85;2.60;;;;;;;5.35;90.72;98107.69;4973807;28;20500;-82
2023/12/31 01:23:42;;;;;;;4.55;2.78;;;;;;;5.27;90.70;98098.25;4987025;28;20097;-82
2023/12/31 01:26:08;;;;;;;5.05;2.88;;;;;;;5.37;89.82;98098.47;5005462;28;20157;-82
2023/12/31 01:28:33;;;;;;;8.55;3.42;;;;;;;5.15;91.10;98081.59;4991554;28;20394;-82
2023/12/31 01:30:58;;;;;;;7.03;2.90;;;;;;;5.22;91.38;98084.94;4990241;28;20453;-82
2023/12/31 01:33:24;;;;;;;2.90;2.55;;;;;;;5.22;90.99;98085.72;4990578;28;20026;-82
2023/12/31 01:35:49;;;;;;;5.10;2.13;;;;;;;5.24;91.55;98088.16;4989927;28;20087;-82
2023/12/31 01:38:14;;;;;;;6.20;3.00;;;;;;;5.21;90.70;98078.00;4989077;28;20130;-82
2023/12/31 01:40:40;;;;;;;9.48;3.35;;;;;;;5.22;90.63;98077.00;4973478;28;20513;-82
2023/12/31 01:43:05;;;;;;;3.50;2.88;;;;;;;5.36;89.99;98090.75;4989557;28;20030;-82
2023/12/31 01:45:30;;;;;;;9.00;4.13;;;;;;;5.36;89.40;98088.91;4988378;28;20124;-82
2023/12/31 01:47:56;;;;;;;6.88;3.00;;;;;;;5.31;89.95;98088.78;5004625;28;20371;-82
2023/12/31 01:50:23;;;;;;;5.20;3.33;;;;;;;5.20;89.85;98079.84;5005830;28;20038;-82
2023/12/31 01:52:50;;;;;;;4.57;3.03;;;;;;;5.12;90.68;98085.50;4987773;28;20030;-83
2023/12/31 01:55:16;;;;;;;6.30;4.00;;;;;;;4.90;91.44;98075.75;4986862;28;20022;-82
2023/12/31 01:57:42;;;;;;;7.88;3.30;;;;;;;4.93;91.51;98072.66;4971922;28;20088;-82
2023/12/31 02:00:08;;;;;;;5.65;3.22;;;;;;;4.79;93.37;98069.44;4987165;28;20034;-82
2023/12/31 02:02:34;;;;;;;6.78;3.13;;;;;;;4.87;92.54;98058.50;4973288;28;20041;-82
2023/12/31 02:04:59;;;;;;;6.22;2.65;;;;;;;5.06;92.08;98070.56;4970639;28;20072;-82
2023/12/31 02:07:25;;;;;;;5.93;3.20;;;;;;;4.78;92.41;98067.03;4955564;28;20042;-82
2023/12/31 02:09:51;;;;;;;9.30;3.03;;;;;;;4.96;91.81;98058.94;4990494;28;20035;-82
2023/12/31 02:12:17;;;;;;;5.68;3.45;;;;;;;4.89;92.16;98050.34;4985471;28;21062;-82
2023/12/31 02:14:42;;;;;;;8.07;3.75;;;;;;;4.81;92.26;98051.50;4988234;28;20042;-82
2023/12/31 02:17:07;;;;;;;4.78;2.83;;;;;;;4.88;92.59;98048.72;4987516;28;20034;-82
2023/12/31 02:19:33;;;;;;;3.70;2.78;;;;;;;4.77;93.57;98046.91;4974379;28;20061;-82
2023/12/31 02:21:59;;;;;;;5.28;2.67;;;;;;;4.80;93.16;98034.03;4969017;28;20022;-82
2023/12/31 02:24:31;;;;;;;7.35;2.88;;;;;;;4.96;92.30;98043.91;4986082;28;20042;-81
2023/12/31 02:26:57;;;;;;;7.03;2.90;;;;;;;4.87;91.85;98031.28;4988563;28;20077;-82
2023/12/31 02:29:22;;;;;;;5.38;2.65;;;;;;;4.82;91.96;98025.88;4988241;28;20029;-81
2023/12/31 02:31:48;;;;;;;6.03;3.30;;;;;;;5.13;91.49;98025.50;4955781;28;20038;-82
2023/12/31 02:34:13;;;;;;;4.03;3.28;;;;;;;4.83;92.99;98024.81;4973517;28;20113;-82
2023/12/31 02:36:38;;;;;;;5.78;2.63;;;;;;;4.64;92.67;98023.34;4987463;28;20038;-82
2023/12/31 02:39:04;;;;;;;9.50;5.03;;;;;;;4.75;92.77;98006.69;4989297;28;20034;-82
2023/12/31 02:41:31;;;;;;;4.63;3.08;;;;;;;4.51;93.81;97987.41;4989637;28;20029;-82
2023/12/31 02:43:57;;;;;;;8.95;3.08;;;;;;;4.42;94.56;97989.59;4987673;28;20069;-82
2023/12/31 02:46:23;;;;;;;7.00;2.60;;;;;;;4.27;95.72;98002.44;4986675;28;20498;-82
2023/12/31 02:48:48;;;;;;;3.45;2.90;;;;;;;4.02;97.62;97993.91;4989559;28;20038;-81
2023/12/31 02:51:13;;;;;;;4.55;3.05;;;;;;;4.41;96.50;97998.53;4971399;28;20022;-82
2023/12/31 02:53:39;;;;;;;7.18;3.85;;;;;;;4.43;95.84;98001.75;5007175;28;20026;-82
2023/12/31 02:56:04;;;;;;;6.07;3.40;;;;;;;4.63;94.50;97996.13;4970198;28;20486;-81
2023/12/31 02:58:30;;;;;;;4.22;2.80;;;;;;;4.40;94.68;97989.00;4977301;28;20026;-82
2023/12/31 03:00:55;;;;;;;7.40;3.30;;;;;;;4.71;94.60;97993.13;4992294;28;20479;-81
2023/12/31 03:03:20;;;;;;;5.40;3.25;;;;;;;4.59;93.88;97983.63;4992682;28;20486;-82
2023/12/31 03:05:46;;;;;;;5.53;3.15;;;;;;;4.36;93.76;97985.22;4992640;28;20502;-82
2023/12/31 03:08:11;;;;;;;12.60;2.67;;;;;;;4.50;94.29;97991.88;4987036;28;21966;-82
2023/12/31 03:10:36;;;;;;;6.55;3.00;;;;;;;4.05;95.78;97975.00;4986409;28;20479;-82
2023/12/31 03:13:02;;;;;;;6.65;3.25;;;;;;;4.16;96.25;97979.47;5008177;28;20401;-82
2023/12/31 03:15:27;;;;;;;5.35;3.03;;;;;;;4.16;97.26;97982.13;4993675;28;20059;-82
2023/12/31 03:17:52;;;;;;;12.48;3.35;;;;;;;4.16;96.81;97966.28;4992945;28;20442;-82
2023/12/31 03:20:18;;;;;;;6.25;3.20;;;;;;;4.00;97.05;97964.28;4993751;28;20363;-82
2023/12/31 03:22:47;;;;;;;10.82;3.67;;;;;;;4.19;95.84;97957.09;4973985;28;20490;-82
2023/12/31 03:25:12;;;;;;;10.80;3.70;;;;;;;4.08;95.94;97945.50;4991927;28;20048;-83
2023/12/31 03:27:38;;;;;;;7.55;3.25;;;;;;;4.04;96.63;97960.16;4989712;28;20113;-81
2023/12/31 03:30:04;;;;;;;5.13;3.40;;;;;;;3.99;96.97;97946.06;4992544;28;20026;-82
2023/12/31 03:32:29;;;;;;;3.42;2.80;;;;;;;4.44;96.08;97937.31;5005897;28;20042;-82
2023/12/31 03:34:55;;;;;;;6.75;3.05;;;;;;;4.54;93.85;97936.75;4991430;28;20494;-82
2023/12/31 03:37:20;;;;;;;6.82;3.13;;;;;;;4.64;93.48;97925.56;4992538;28;20398;-82
2023/12/31 03:39:45;;;;;;;4.63;3.55;;;;;;;4.37;94.88;97912.06;4990404;28;20073;-82
2023/12/31 03:42:11;;;;;;;3.30;2.75;;;;;;;4.38;94.48;97921.59;4968609;28;20030;-82
2023/12/31 03:44:36;;;;;;;7.15;3.80;;;;;;;4.54;93.49;97908.47;5013247;28;20430;-82
2023/12/31 03:47:01;;;;;;;5.13;2.88;;;;;;;4.73;93.36;97921.53;4969378;28;20045;-82
2023/12/31 03:49:27;;;;;;;8.00;3.30;;;;;;;4.88;91.77;97912.06;4973895;28;20042;-82
2023/12/31 03:51:52;;;;;;;5.78;2.95;;;;;;;4.22;93.43;97906.44;4992036;28;20100;-82
2023/12/31 03:54:18;;;;;;;7.88;3.15;;;;;;;4.08;94.79;97908.53;4989372;28;20058;-81
2023/12/31 03:56:43;;;;;;;4.40;2.90;;;;;;;3.90;96.60;97884.88;5002635;28;20038;-81
2023/12/31 03:59:08;;;;;;;4.68;3.22;;;;;;;4.25;95.25;97892.78;4975388;28;20513;-81
2023/12/31 04:01:42;;;;;;;3.13;2.58;;;;;;;4.80;92.58;97890.50;4989165;28;20058;-82
2023/12/31 04:04:07;;;;;;;4.53;2.50;;;;;;;4.85;91.78;97882.66;4974468;28;20619;-82
2023/12/31 04:06:33;;;;;;;4.35;3.03;;;;;;;4.93;91.76;97891.03;4991060;28;20031;-82
2023/12/31 04:08:58;;;;;;;5.95;2.45;;;;;;;4.66;92.01;97870.63;4969887;28;20073;-82
2023/12/31 04:11:23;;;;;;;2.38;2.10;;;;;;;4.85;91.51;97882.66;4974947;28;20049;-82
2023/12/31 04:13:49;;;;;;;4.30;3.13;;;;;;;4.91;90.62;97879.88;4990936;28;20034;-82
2023/12/31 04:16:14;;;;;;;3.28;2.67;;;;;;;4.86;90.92;97878.97;4990957;28;20085;-82
2023/12/31 04:18:39;;;;;;;4.13;2.28;;;;;;;4.93;90.49;97879.66;4973510;28;20054;-81
2023/12/31 04:21:05;;;;;;;4.82;2.50;;;;;;;4.67;91.94;97872.25;4992248;28;20034;-81
2023/12/31 04:23:30;;;;;;;4.05;2.50;;;;;;;4.70;91.69;97863.84;4991702;28;20030;-82
2023/12/31 04:25:55;;;;;;;4.45;2.58;;;;;;;4.52;92.52;97864.84;4989140;28;20031;-82
2023/12/31 04:28:21;;;;;;;9.15;3.30;;;;;;;4.50;92.51;97862.41;5008607;28;20038;-82
2023/12/31 04:30:46;;;;;;;3.40;2.50;;;;;;;4.31;93.39;97860.97;4957862;28;20084;-81
2023/12/31 04:33:12;;;;;;;7.00;2.55;;;;;;;4.42;93.24;97851.41;4990724;28;20039;-81
2023/12/31 04:35:37;;;;;;;5.90;2.60;;;;;;;4.57;92.88;97852.53;5005390;28;20061;-82
2023/12/31 04:38:02;;;;;;;3.58;2.63;;;;;;;4.40;91.78;97812.03;4956786;28;20038;-82
2023/12/31 04:40:28;;;;;;;6.97;2.90;;;;;;;4.62;92.67;97841.25;4987678;28;20088;-82
2023/12/31 04:42:53;;;;;;;4.47;2.58;;;;;;;4.80;91.02;97853.47;4992434;28;20485;-81
2023/12/31 04:45:19;;;;;;;4.68;3.13;;;;;;;4.31;92.17;97834.56;4987707;28;20034;-81
2023/12/31 04:47:44;;;;;;;3.58;2.53;;;;;;;4.43;93.02;97829.25;4990976;28;20049;-81
2023/12/31 04:50:10;;;;;;;6.35;2.92;;;;;;;4.33;93.27;97831.66;4967758;28;20070;-82
2023/12/31 04:52:35;;;;;;;7.43;2.50;;;;;;;4.65;91.73;97819.66;5002606;28;20525;-82
2023/12/31 04:55:01;;;;;;;5.68;2.80;;;;;;;4.75;91.78;97835.69;4989766;28;20034;-81
2023/12/31 04:57:26;;;;;;;5.38;2.65;;;;;;;4.68;90.93;97832.38;4988671;28;20113;-82
2023/12/31 04:59:52;;;;;;;6.57;3.13;;;;;;;4.61;91.98;97830.94;4992550;28;20486;-82
2023/12/31 05:02:17;;;;;;;3.95;2.50;;;;;;;4.54;92.59;97812.56;4989105;28;20188;-82
2023/12/31 05:04:43;;;;;;;7.78;2.78;;;;;;;4.59;91.69;97825.84;4992134;28;20034;-82
2023/12/31 05:07:09;;;;;;;4.82;2.40;;;;;;;4.72;91.85;97812.34;5001824;28;20386;-82
2023/12/31 05:09:35;;;;;;;4.30;2.85;;;;;;;4.56;92.85;97813.13;4975775;28;20041;-81
2023/12/31 05:12:01;;;;;;;2.58;2.15;;;;;;;4.92;90.95;97811.94;4990454;28;20062;-81
2023/12/31 05:14:26;;;;;;;4.10;2.08;;;;;;;4.89;90.53;97802.63;4990196;28;20049;-82
2023/12/31 05:16:51;;;;;;;6.80;3.10;;;;;;;4.50;91.01;97809.56;4993487;28;20041;-81
2023/12/31 05:19:17;;;;;;;6.60;3.17;;;;;;;4.59;91.40;97809.22;4975022;28;20035;-82
2023/12/31 05:21:42;;;;;;;3.28;2.35;;;;;;;4.72;92.10;97811.59;4988143;28;20079;-82
2023/12/31 05:24:07;;;;;;;8.73;3.00;;;;;;;4.83;90.18;97810.69;4990217;28;20106;-82
2023/12/31 05:26:33;;;;;;;3.97;2.42;;;;;;;4.57;92.08;97790.94;4968159;28;20026;-82
2023/12/31 05:28:58;;;;;;;6.70;2.40;;;;;;;4.82;90.47;97782.69;4989684;28;20045;-82
2023/12/31 05:31:23;;;;;;;4.28;2.80;;;;;;;4.33;93.57;97784.94;4985798;28;20045;-81
2023/12/31 05:33:49;;;;;;;4.30;2.20;;;;;;;4.73;92.53;97776.97;4989455;28;20121;-82
2023/12/31 05:36:15;;;;;;;3.88;2.70;;;;;;;4.53;91.89;97787.97;4967771;28;20176;-82
2023/12/31 05:38:40;;;;;;;2.95;2.30;;;;;;;4.66;92.00;97765.75;4994793;28;20041;-82
2023/12/31 05:41:05;;;;;;;3.45;2.08;;;;;;;4.76;90.72;97771.19;5005340;28;20545;-82
2023/12/31 05:43:31;;;;;;;3.00;2.33;;;;;;;4.75;91.21;97761.69;4989153;28;20038;-82
2023/12/31 05:45:56;;;;;;;4.88;2.70;;;;;;;4.36;93.06;97763.34;4973004;28;20030;-81
2023/12/31 05:48:21;;;;;;;6.35;2.42;;;;;;;4.64;92.46;97773.09;4992194;28;20034;-82
2023/12/31 05:50:47;;;;;;;2.92;2.47;;;;;;;4.66;91.50;97778.16;5008996;28;20030;-81
2023/12/31 05:53:13;;;;;;;5.57;2.97;;;;;;;4.51;92.66;97776.03;4980744;28;20032;-81
2023/12/31 05:55:38;;;;;;;2.95;2.47;;;;;;;4.70;92.04;97779.28;4988563;28;20030;-82
2023/12/31 05:58:03;;;;;;;4.20;2.70;;;;;;;4.39;92.79;97754.94;4990536;28;20142;-82
2023/12/31 06:00:29;;;;;;;9.00;2.83;;;;;;;4.46;91.75;97766.16;5007051;28;20125;-81
2023/12/31 06:02:55;;;;;;;2.83;2.58;;;;;;;4.57;92.52;97749.47;5008163;28;20046;-82
2023/12/31 06:05:21;;;;;;;3.40;2.67;;;;;;;4.47;91.90;97746.66;4999967;28;20501;-81
2023/12/31 06:07:47;;;;;;;5.15;2.97;;;;;;;4.47;93.02;97744.00;4984964;28;20123;-81
2023/12/31 06:10:12;;;;;;;4.18;3.17;;;;;;;4.62;92.54;97745.31;4986100;28;20030;-82
2023/12/31 06:12:37;;;;;;;4.10;2.80;;;;;;;4.81;92.26;97760.72;4972825;28;20041;-81
2023/12/31 06:15:06;;;;;;;3.53;2.85;;;;;;;4.78;91.36;97750.66;4984255;28;20030;-82
2023/12/31 06:17:32;;;;;;;3.70;2.45;;;;;;;4.90;90.89;97754.00;4991443;28;20049;-83
2023/12/31 06:19:57;;;;;;;4.05;2.50;;;;;;;4.85;90.75;97753.13;4969930;28;20038;-82
2023/12/31 06:22:22;;;;;;;5.05;3.10;;;;;;;4.94;91.18;97754.31;4987155;28;20121;-82
2023/12/31 06:24:48;;;;;;;2.88;2.55;;;;;;;4.92;90.86;97737.91;4974242;28;20085;-82
2023/12/31 06:27:13;;;;;;;5.50;3.17;;;;;;;4.64;90.85;97749.31;4965315;28;20038;-82
2023/12/31 06:29:38;;;;;;;3.53;2.45;;;;;;;4.44;92.52;97746.31;4990262;28;20066;-81
2023/12/31 06:32:04;;;;;;;7.95;3.33;;;;;;;4.51;91.59;97755.72;4972058;28;20031;-82
2023/12/31 06:34:30;;;;;;;4.38;2.50;;;;;;;4.65;92.51;97742.19;4987105;28;20092;-82
2023/12/31 06:36:55;;;;;;;6.60;3.33;;;;;;;4.34;92.49;97749.56;4991180;28;20038;-82
2023/12/31 06:39:20;;;;;;;7.47;2.97;;;;;;;4.44;92.84;97741.03;4990287;28;20034;-81
2023/12/31 06:41:46;;;;;;;4.28;3.05;;;;;;;4.36;92.63;97741.41;4972008;28;20543;-82
2023/12/31 06:44:11;;;;;;;7.78;4.40;;;;;;;4.40;93.02;97745.19;4987686;28;20574;-82
2023/12/31 06:46:36;;;;;;;4.63;3.30;;;;;;;4.12;94.29;97747.81;4972714;28;20409;-82
2023/12/31 06:49:03;;;;;;;8.18;3.97;;;;;;;4.32;93.23;97709.41;4966928;28;20034;-82
2023/12/31 06:51:28;;;;;;;6.20;3.90;;;;;;;4.48;92.67;97727.09;4972438;28;20041;-82
2023/12/31 06:53:53;;;;;;;5.78;3.85;;;;;;;4.24;92.92;97712.41;4984143;28;20034;-82
2023/12/31 06:56:19;;;;;;;6.60;3.50;;;;;;;4.20;94.56;97711.25;4990329;28;20034;-82
2023/12/31 06:58:44;;;;;;;9.25;4.72;;;;;;;4.02;94.09;97710.66;5006286;28;20037;-82
2023/12/31 07:01:09;;;;;;;5.38;3.95;;;;;;;4.29;94.30;97706.41;4989305;28;20126;-82
2023/12/31 07:03:35;;;;;;;5.85;3.33;;;;;;;4.41;93.79;97710.59;4986832;28;20034;-81
2023/12/31 07:06:01;;;;;;;6.15;3.88;;;;;;;4.18;94.29;97704.63;4988525;28;20029;-82
2023/12/31 07:08:26;;;;;;;7.13;4.72;;;;;;;4.25;93.64;97681.50;4987392;28;20030;-82
2023/12/31 07:10:52;;;;;;;6.88;3.85;;;;;;;4.50;94.34;97687.22;4990427;28;20041;-81
2023/12/31 07:13:18;;;;;;;4.07;3.67;;;;;;;4.28;93.42;97679.19;4988905;28;20374;-82
2023/12/31 07:15:44;;;;;;;5.03;3.53;;;;;;;4.25;94.52;97670.94;4989871;28;20034;-82
2023/12/31 07:18:09;;;;;;;7.20;3.78;;;;;;;4.33;93.91;97679.28;5000827;28;20037;-81
2023/12/31 07:20:35;;;;;;;5.07;4.22;;;;;;;4.36;93.57;97676.19;4984081;28;20049;-81
2023/12/31 07:23:00;;;;;;;5.97;4.20;;;;;;;4.24;92.98;97666.69;4988430;28;20058;-81
2023/12/31 07:25:28;;;;;;;4.57;3.78;;;;;;;4.42;92.74;97663.84;5006732;28;20031;-82
2023/12/31 07:27:54;;;;;;;13.65;4.68;;;;;;;4.47;92.63;97671.88;4984638;28;20379;-82
2023/12/31 07:30:20;;;;;;;10.00;4.70;;;;;;;4.33;92.47;97668.72;4988406;28;20030;-81
2023/12/31 07:32:45;;;;;;;6.47;3.63;;;;;;;4.39;92.48;97659.84;5005205;28;20031;-82
2023/12/31 07:35:10;;;;;;;5.88;3.95;;;;;;;4.42;93.56;97656.75;4956725;28;20030;-82
2023/12/31 07:37:38;;;;;;;5.78;4.03;;;;;;;4.59;92.11;97653.31;5004260;28;20057;-82
2023/12/31 07:40:05;;;;;;;7.90;4.18;;;;;;;4.64;91.80;97651.56;4968508;28;20062;-82
2023/12/31 07:42:30;;;;;;;4.50;3.83;;;;;;;4.56;92.30;97638.75;4985756;28;20434;-81
2023/12/31 07:44:56;;;;;;;8.40;5.18;;;;;;;4.49;91.26;97619.59;4991138;28;20030;-81
2023/12/31 07:47:21;;;;;;;5.70;4.15;;;;;;;4.57;91.16;97625.28;5017653;28;20041;-82
2023/12/31 07:49:47;;;;;;;6.68;4.47;;;;;;;4.64;90.89;97648.91;4991639;28;20041;-81
2023/12/31 07:52:14;;;;;;;8.93;4.10;;;;;;;4.57;91.63;97635.03;4992428;28;20105;-81
2023/12/31 07:54:39;;;;;;;9.32;4.75;;;;;;;4.54;91.79;97643.47;4990772;28;20034;-82
2023/12/31 07:57:04;;;;;;;6.80;4.65;;;;;;;4.57;90.98;97645.63;5007271;28;20046;-82
2023/12/31 07:59:30;;;;;;;9.35;4.93;;;;;;;4.45;92.51;97645.72;4990491;28;20030;-82
2023/12/31 08:01:57;;;;;;;8.25;4.55;;;;;;;4.53;92.05;97644.50;4992486;28;20084;-81
2023/12/31 08:04:23;;;;;;;7.95;4.35;;;;;;;4.55;92.18;97622.09;5007514;28;20035;-82
2023/12/31 08:06:48;;;;;;;6.38;4.70;;;;;;;4.71;91.52;97631.06;5006172;28;20068;-82
2023/12/31 08:09:15;;;;;;;10.70;5.13;;;;;;;4.82;91.09;97639.94;4980841;28;20039;-82
2023/12/31 08:11:41;;;;;;;7.80;4.32;;;;;;;4.87;90.88;97632.88;4992589;28;20089;-82
2023/12/31 08:14:06;;;;;;;6.18;4.38;;;;;;;4.81;90.45;97625.09;4993944;28;20469;-82
2023/12/31 08:16:31;;;;;;;6.55;4.40;;;;;;;4.82;91.44;97635.47;4992406;28;20536;-82
2023/12/31 08:18:57;;;;;;;7.18;4.13;;;;;;;4.83;90.61;97618.53;4975282;28;20405;-81
2023/12/31 08:21:22;;;;;;;9.02;4.38;;;;;;;4.89;90.35;97609.63;4991504;28;20057;-82
2023/12/31 08:23:47;;;;;;;12.07;5.82;;;;;;;4.95;90.79;97621.91;4991427;28;20038;-82
2023/12/31 08:26:13;;;;;;;6.65;4.93;;;;;;;5.07;90.13;97617.31;4991705;28;20054;-82
2023/12/31 08:28:38;;;;;;;7.65;4.88;;;;;;;5.05;90.56;97621.25;5002641;28;20076;-82
2023/12/31 08:31:04;;;;;;;6.65;4.28;;;;;;;5.07;90.30;97612.03;5011264;28;20038;-82
2023/12/31 08:33:29;;;;;;;8.10;4.88;;;;;;;5.14;90.05;97601.28;4974245;28;20552;-82
2023/12/31 08:35:55;;;;;;;5.15;3.70;;;;;;;5.21;89.27;97600.06;5006679;28;20125;-83
2023/12/31 08:38:20;;;;;;;6.28;4.05;;;;;;;5.06;90.50;97607.00;4991683;28;20053;-81
2023/12/31 08:40:45;;;;;;;6.43;4.38;;;;;;;5.33;89.29;97616.63;4974453;28;20077;-81
2023/12/31 08:43:11;;;;;;;6.95;4.38;;;;;;;5.13;89.67;97600.47;4974096;28;20031;-82
2023/12/31 08:45:39;;;;;;;8.20;4.00;;;;;;;5.17;89.30;97600.78;4990782;28;20026;-82
2023/12/31 08:48:07;;;;;;;10.48;4.50;;;;;;;5.30;89.93;97618.97;4975358;28;20035;-81
2023/12/31 08:50:32;;;;;;;6.03;4.30;;;;;;;5.28;89.42;97624.50;4986940;28;20501;-81
2023/12/31 08:52:57;;;;;;;5.82;3.90;;;;;;;5.24;89.83;97619.94;4988198;28;20035;-81
2023/12/31 08:55:23;;;;;;;5.80;4.40;;;;;;;5.02;89.84;97614.59;4990570;28;20033;-81
2023/12/31 08:57:48;;;;;;;7.10;4.55;;;;;;;5.01;90.37;97612.19;4991451;28;20037;-82
2023/12/31 09:00:17;;;;;;;4.72;3.72;;;;;;;5.00;91.49;97607.97;4992468;28;20398;-81
2023/12/31 09:02:43;;;;;;;5.70;5.10;;;;;;;4.85;92.27;97590.03;4990128;28;20033;-81
2023/12/31 09:05:09;;;;;;;5.95;4.88;;;;;;;4.98;92.38;97610.06;4990212;28;20058;-81
2023/12/31 09:07:35;;;;;;;7.65;4.93;;;;;;;5.10;91.18;97592.22;4992785;28;20117;-81
2023/12/31 09:10:04;;;;;;;10.50;6.20;;;;;;;4.75;92.24;97581.16;5003836;28;20045;-81
2023/12/31 09:12:30;;;;;;;7.63;4.22;;;;;;;5.11;91.09;97594.63;5005415;28;20714;-81
2023/12/31 09:14:55;;;;;;;10.65;5.20;;;;;;;4.98;91.91;97573.03;5007165;28;20041;-82
2023/12/31 09:17:20;;;;;;;6.13;4.40;;;;;;;5.17;90.79;97585.72;4992361;28;20046;-82
2023/12/31 09:19:46;;;;;;;4.90;4.30;;;;;;;5.02;90.79;97585.50;4989027;28;20027;-82
2023/12/31 09:22:11;;;;;;;6.60;5.72;;;;;;;4.89;91.36;97582.44;4988686;28;20450;-82
2023/12/31 09:24:37;;;;;;;9.00;5.30;;;;;;;4.89;91.17;97582.44;4989012;28;20456;-81
2023/12/31 09:27:03;;;;;;;8.05;4.38;;;;;;;5.03;91.71;97573.09;4991449;28;20026;-81
2023/12/31 09:29:29;;;;;;;6.28;4.60;;;;;;;5.11;91.61;97589.34;4986251;28;20061;-82
2023/12/31 09:31:54;;;;;;;7.43;5.25;;;;;;;5.08;92.27;97581.09;5005477;28;20068;-82
2023/12/31 09:34:20;;;;;;;7.63;5.97;;;;;;;4.87;91.51;97571.31;4975025;28;21210;-82
2023/12/31 09:36:45;;;;;;;8.85;5.85;;;;;;;5.00;91.96;97576.25;4971721;28;20034;-81
2023/12/31 09:39:11;;;;;;;11.95;6.88;;;;;;;5.15;91.42;97576.44;5005224;28;20133;-81
2023/12/31 09:41:38;;;;;;;9.13;6.57;;;;;;;4.94;91.54;97574.53;5006560;28;20026;-81
2023/12/31 09:44:03;;;;;;;9.82;5.60;;;;;;;4.88;91.37;97571.03;5008793;28;20076;-81
2023/12/31 09:46:31;;;;;;;9.95;6.07;;;;;;;5.08;91.51;97559.94;4990274;28;20525;-82
2023/12/31 09:48:58;;;;;;;20.58;10.07;;;;;;;5.15;90.99;97581.72;4989841;28;20405;-81
2023/12/31 09:51:24;;;;;;;16.90;9.38;;;;;;;5.15;90.98;97565.88;4989311;28;20038;-82
2023/12/31 09:53:52;;;;;;;11.93;6.65;;;;;;;5.32;91.83;97567.41;4973964;28;20509;-82
2023/12/31 09:56:21;;;;;;;17.95;10.93;;;;;;;4.88;91.96;97552.53;4989479;28;20026;-82
2023/12/31 09:58:50;;;;;;;13.88;8.05;;;;;;;5.00;92.63;97563.03;4988862;28;20027;-82
2023/12/31 10:01:15;;;;;;;10.07;7.10;;;;;;;5.30;91.31;97563.41;5003473;28;20030;-82
2023/12/31 10:03:44;;;;;;;11.32;7.25;;;;;;;5.27;91.74;97566.53;4993650;28;20088;-82
2023/12/31 10:06:10;;;;;;;15.20;9.07;;;;;;;5.25;91.01;97555.41;5003649;28;20054;-82
2023/12/31 10:08:37;;;;;;;13.05;7.75;;;;;;;5.15;92.44;97560.56;4988935;28;20122;-82
2023/12/31 10:11:03;;;;;;;8.95;6.35;;;;;;;5.05;93.06;97532.16;4999285;28;20511;-82
2023/12/31 10:13:30;;;;;;;9.90;6.85;;;;;;;5.04;94.00;97524.47;4987888;28;20035;-83
2023/12/31 10:15:55;;;;;;;9.45;6.25;;;;;;;5.21;92.95;97533.13;4986957;28;20033;-82
2023/12/31 10:18:25;;;;;;;11.70;7.55;;;;;;;5.04;93.03;97522.63;4986162;28;20038;-82
2023/12/31 10:20:52;;;;;;;10.75;7.10;;;;;;;5.08;93.39;97507.06;4984865;28;21458;-82
2023/12/31 10:23:17;;;;;;;9.98;6.72;;;;;;;5.35;92.78;97528.28;4982381;28;20022;-82
2023/12/31 10:25:43;;;;;;;12.63;7.55;;;;;;;5.35;92.81;97517.69;4980612;28;20041;-81
2023/12/31 10:28:08;;;;;;;10.68;7.35;;;;;;;5.22;93.05;97495.84;4983845;28;20026;-82
2023/12/31 10:30:37;;;;;;;11.80;6.55;;;;;;;5.42;92.21;97495.28;4982821;28;20034;-82
2023/12/31 10:33:10;;;;;;;12.43;6.70;;;;;;;5.44;91.93;97471.25;4983204;28;20026;-82
2023/12/31 10:35:36;;;;;;;9.98;6.55;;;;;;;5.59;91.45;97466.88;4984092;28;20038;-82
2023/12/31 10:38:07;;;;;;;8.77;6.60;;;;;;;5.35;92.13;97462.16;4983005;28;20512;-82
2023/12/31 10:40:33;;;;;;;10.40;6.55;;;;;;;5.69;91.25;97471.47;4953960;28;20120;-82
2023/12/31 10:42:59;;;;;;;9.40;6.60;;;;;;;5.49;92.49;97458.84;4985367;28;20038;-82
2023/12/31 10:45:26;;;;;;;10.48;6.38;;;;;;;5.48;92.80;97454.63;4979076;28;20089;-81
2023/12/31 10:47:53;;;;;;;11.75;7.22;;;;;;;5.38;94.39;97445.75;4978341;28;20034;-82
2023/12/31 10:50:23;;;;;;;12.23;7.68;;;;;;;5.79;92.99;97460.97;4984146;28;20027;-82
2023/12/31 10:52:51;;;;;;;22.15;9.98;;;;;;;5.83;90.74;97456.78;4976338;28;20039;-82
2023/12/31 10:55:17;;;;;;;9.57;6.80;;;;;;;5.77;91.65;97431.31;4981878;28;20026;-82
2023/12/31 10:57:43;;;;;;;12.00;7.18;;;;;;;5.78;91.20;97454.09;4983895;28;20049;-82
2023/12/31 11:00:11;;;;;;;15.45;6.70;;;;;;;5.57;92.11;97447.81;4999512;28;20080;-82
2023/12/31 11:02:37;;;;;;;11.57;6.88;;;;;;;5.85;91.37;97438.84;5005971;28;20418;-83
2023/12/31 11:05:04;;;;;;;11.73;6.95;;;;;;;6.00;90.69;97450.34;5006393;28;20046;-83
2023/12/31 11:07:29;;;;;;;6.78;5.72;;;;;;;5.70;90.76;97441.31;4988178;28;20078;-82
2023/12/31 11:09:57;;;;;;;12.52;6.47;;;;;;;5.79;91.65;97432.66;4988739;28;20022;-82
2023/12/31 11:12:22;;;;;;;12.23;7.00;;;;;;;5.76;91.27;97409.34;5006058;28;20165;-82
2023/12/31 11:15:06;;;;;;;12.32;7.32;;;;;;;5.49;92.39;97413.88;4988654;28;20023;-82
2023/12/31 11:18:03;;;;;;;13.82;6.93;;;;;;;5.78;90.54;97404.59;5004413;28;20026;-82
2023/12/31 11:20:30;;;;;;;;;;;;;;;5.86;91.83;97406.78;4994743;28;20093;-82
2023/12/31 11:23:23;;;;;;;8.15;4.53;;;;;;;5.68;91.84;97396.56;4995240;28;19914;-81
2023/12/31 11:25:49;;;;;;;9.10;5.40;;;;;;;5.81;91.02;97379.47;5008984;28;20041;-81
2023/12/31 11:28:17;;;;;;;14.02;7.35;;;;;;;5.92;90.74;97387.25;4993669;28;20389;-82
2023/12/31 11:30:48;;;;;;;12.52;6.80;;;;;;;5.96;91.24;97385.69;4991316;28;20041;-82
2023/12/31 11:33:31;;;;;;;13.55;6.75;;;;;;;6.00;91.51;97367.44;4990824;28;20034;-82
2023/12/31 11:36:00;;;;;;;9.63;5.63;;;;;;;5.97;90.98;97363.44;4991994;28;20034;-82